<?xml version="1.0" encoding="UTF-8" standalone="no" ?>
<gpx xmlns="http://www.topografix.com/GPX/1/1" xmlns:xsi="http://www.w3.org/2001/XMLSchema-instance" xsi:schemaLocation="http://www.topografix.com/GPX/1/1 http://www.topografix.com/GPX/1/1/gpx.xsd" version="1.1" creator="VisuGPX - https://www.visugpx.com">
  <metadata>
    <name>Veigy - Moulin de Cara aller</name>
    <desc><![CDATA[Veigy - Moulin de Cara aller HW ]]></desc>
  </metadata>
  <trk>
    <name><![CDATA[CURRENT TRACK: 27 NOV 2021 17:56]]></name>
    <extensions>
      <line xmlns="http://www.topografix.com/GPX/gpx_style/0/2">
        <color>0000FF</color>
        <width>4</width>
      </line>
    </extensions>
    <trkseg>
      <trkpt lat="46.26842" lon="6.2575">
        <ele>430.6</ele>
        <time>2021-11-27T17:58:57Z</time>
      </trkpt>
      <trkpt lat="46.26842" lon="6.25766">
        <ele>430.7</ele>
      </trkpt>
      <trkpt lat="46.26822" lon="6.25814">
        <ele>431.2</ele>
      </trkpt>
      <trkpt lat="46.26752" lon="6.25769">
        <ele>471.54</ele>
        <time>2021-12-18T12:20:01Z</time>
      </trkpt>
      <trkpt lat="46.267" lon="6.25729">
        <ele>471.54</ele>
        <time>2021-12-18T12:21:08Z</time>
      </trkpt>
      <trkpt lat="46.26646" lon="6.25708">
        <ele>471.54</ele>
        <time>2021-12-18T12:21:52Z</time>
      </trkpt>
      <trkpt lat="46.2661" lon="6.25696">
        <ele>471.54</ele>
        <time>2021-12-18T12:22:07Z</time>
      </trkpt>
      <trkpt lat="46.26587" lon="6.25712">
        <ele>433.8</ele>
      </trkpt>
      <trkpt lat="46.26557" lon="6.25698">
        <ele>471.54</ele>
        <time>2021-12-18T12:23:13Z</time>
      </trkpt>
      <trkpt lat="46.26509" lon="6.25676">
        <ele>435.7</ele>
        <time>2021-12-18T12:23:35Z</time>
      </trkpt>
      <trkpt lat="46.26494" lon="6.25749">
        <ele>477.24</ele>
        <time>2021-12-18T12:23:50Z</time>
      </trkpt>
      <trkpt lat="46.26437" lon="6.25711">
        <ele>477.93</ele>
        <time>2021-12-18T12:24:08Z</time>
      </trkpt>
      <trkpt lat="46.2638" lon="6.25679">
        <ele>477.76</ele>
        <time>2021-12-18T12:24:23Z</time>
      </trkpt>
      <trkpt lat="46.26342" lon="6.25666">
        <ele>477.9</ele>
        <time>2021-12-18T12:24:33Z</time>
      </trkpt>
      <trkpt lat="46.26315" lon="6.25667">
        <ele>478.54</ele>
        <time>2021-12-18T12:25:12Z</time>
      </trkpt>
      <trkpt lat="46.26258" lon="6.25691">
        <ele>479.24</ele>
        <time>2021-12-18T12:25:28Z</time>
      </trkpt>
      <trkpt lat="46.26214" lon="6.25748">
        <ele>480.15</ele>
        <time>2021-12-18T12:25:44Z</time>
      </trkpt>
      <trkpt lat="46.26189" lon="6.25792">
        <ele>480.61</ele>
        <time>2021-12-18T12:25:55Z</time>
      </trkpt>
      <trkpt lat="46.26151" lon="6.25858">
        <ele>482.28</ele>
        <time>2021-12-18T12:26:13Z</time>
      </trkpt>
      <trkpt lat="46.26114" lon="6.25923">
        <ele>484.32</ele>
        <time>2021-12-18T12:26:32Z</time>
      </trkpt>
      <trkpt lat="46.26089" lon="6.25966">
        <ele>485.18</ele>
        <time>2021-12-18T12:26:44Z</time>
      </trkpt>
      <trkpt lat="46.26059" lon="6.26042">
        <ele>486.39</ele>
        <time>2021-12-18T12:27:08Z</time>
      </trkpt>
      <trkpt lat="46.26032" lon="6.26116">
        <ele>487.59</ele>
        <time>2021-12-18T12:27:27Z</time>
      </trkpt>
      <trkpt lat="46.26016" lon="6.26169">
        <ele>488.27</ele>
        <time>2021-12-18T12:27:39Z</time>
      </trkpt>
      <trkpt lat="46.26002" lon="6.26219">
        <ele>447.1</ele>
      </trkpt>
      <trkpt lat="46.25982" lon="6.26199">
        <ele>489.41</ele>
        <time>2021-12-18T12:28:00Z</time>
      </trkpt>
      <trkpt lat="46.25935" lon="6.26146">
        <ele>491.26</ele>
        <time>2021-12-18T12:28:23Z</time>
      </trkpt>
      <trkpt lat="46.25891" lon="6.26094">
        <ele>491.67</ele>
        <time>2021-12-18T12:28:46Z</time>
      </trkpt>
      <trkpt lat="46.25871" lon="6.26074">
        <ele>449.9</ele>
      </trkpt>
      <trkpt lat="46.25885" lon="6.26049">
        <ele>491.23</ele>
        <time>2021-12-18T12:29:04Z</time>
      </trkpt>
      <trkpt lat="46.2592" lon="6.2598">
        <ele>489.54</ele>
        <time>2021-12-18T12:29:27Z</time>
      </trkpt>
      <trkpt lat="46.25955" lon="6.25916">
        <ele>488.39</ele>
        <time>2021-12-18T12:29:52Z</time>
      </trkpt>
      <trkpt lat="46.25925" lon="6.25881">
        <ele>487.94</ele>
        <time>2021-12-18T12:30:08Z</time>
      </trkpt>
      <trkpt lat="46.25875" lon="6.25834">
        <ele>487.75</ele>
        <time>2021-12-18T12:30:33Z</time>
      </trkpt>
      <trkpt lat="46.25827" lon="6.2579">
        <ele>487.53</ele>
        <time>2021-12-18T12:30:59Z</time>
      </trkpt>
      <trkpt lat="46.2577" lon="6.25762">
        <ele>488.81</ele>
        <time>2021-12-18T12:31:26Z</time>
      </trkpt>
      <trkpt lat="46.25736" lon="6.25772">
        <ele>489.48</ele>
        <time>2021-12-18T12:31:43Z</time>
      </trkpt>
      <trkpt lat="46.25676" lon="6.25785">
        <ele>490.62</ele>
        <time>2021-12-18T12:36:47Z</time>
      </trkpt>
      <trkpt lat="46.25617" lon="6.25793">
        <ele>490.62</ele>
        <time>2021-12-18T12:37:14Z</time>
      </trkpt>
      <trkpt lat="46.25577" lon="6.25809">
        <ele>490.62</ele>
        <time>2021-12-18T12:37:28Z</time>
      </trkpt>
      <trkpt lat="46.25524" lon="6.25837">
        <ele>493.94</ele>
        <time>2021-12-18T12:37:45Z</time>
      </trkpt>
      <trkpt lat="46.25466" lon="6.25868">
        <ele>493.85</ele>
        <time>2021-12-18T12:38:02Z</time>
      </trkpt>
      <trkpt lat="46.25431" lon="6.25883">
        <ele>493.88</ele>
        <time>2021-12-18T12:38:12Z</time>
      </trkpt>
      <trkpt lat="46.25376" lon="6.25902">
        <ele>494.84</ele>
        <time>2021-12-18T12:38:31Z</time>
      </trkpt>
      <trkpt lat="46.25329" lon="6.25856">
        <ele>496.31</ele>
        <time>2021-12-18T12:38:53Z</time>
      </trkpt>
      <trkpt lat="46.25281" lon="6.25818">
        <ele>499.01</ele>
        <time>2021-12-18T12:39:17Z</time>
      </trkpt>
      <trkpt lat="46.25264" lon="6.25821">
        <ele>458.3</ele>
      </trkpt>
      <trkpt lat="46.25248" lon="6.25845">
        <ele>501.03</ele>
        <time>2021-12-18T12:39:33Z</time>
      </trkpt>
      <trkpt lat="46.25216" lon="6.25912">
        <ele>501.88</ele>
        <time>2021-12-18T12:39:52Z</time>
      </trkpt>
      <trkpt lat="46.25181" lon="6.25986">
        <ele>501.77</ele>
        <time>2021-12-18T12:40:10Z</time>
      </trkpt>
      <trkpt lat="46.25163" lon="6.26033">
        <ele>502.42</ele>
        <time>2021-12-18T12:40:26Z</time>
      </trkpt>
      <trkpt lat="46.25137" lon="6.26116">
        <ele>502.58</ele>
        <time>2021-12-18T12:40:44Z</time>
      </trkpt>
      <trkpt lat="46.2512" lon="6.26196">
        <ele>502.88</ele>
        <time>2021-12-18T12:41:01Z</time>
      </trkpt>
      <trkpt lat="46.25109" lon="6.26254">
        <ele>503.3</ele>
        <time>2021-12-18T12:41:13Z</time>
      </trkpt>
      <trkpt lat="46.25078" lon="6.26324">
        <ele>504.87</ele>
        <time>2021-12-18T12:41:33Z</time>
      </trkpt>
      <trkpt lat="46.25034" lon="6.26385">
        <ele>506.73</ele>
        <time>2021-12-18T12:41:57Z</time>
      </trkpt>
      <trkpt lat="46.25021" lon="6.26402">
        <ele>463.1</ele>
      </trkpt>
      <trkpt lat="46.24985" lon="6.26382">
        <ele>507.3</ele>
        <time>2021-12-18T12:42:18Z</time>
      </trkpt>
      <trkpt lat="46.2495" lon="6.26357">
        <ele>507.06</ele>
        <time>2021-12-18T12:42:32Z</time>
      </trkpt>
      <trkpt lat="46.24897" lon="6.2632">
        <ele>506.84</ele>
        <time>2021-12-18T12:42:51Z</time>
      </trkpt>
      <trkpt lat="46.24844" lon="6.26283">
        <ele>506.51</ele>
        <time>2021-12-18T12:43:11Z</time>
      </trkpt>
      <trkpt lat="46.24827" lon="6.26274">
        <ele>461.8</ele>
      </trkpt>
      <trkpt lat="46.24814" lon="6.26292">
        <ele>506.07</ele>
        <time>2021-12-18T12:43:21Z</time>
      </trkpt>
      <trkpt lat="46.24777" lon="6.26358">
        <ele>504.59</ele>
        <time>2021-12-18T12:43:35Z</time>
      </trkpt>
      <trkpt lat="46.24742" lon="6.26426">
        <ele>504.45</ele>
        <time>2021-12-18T12:43:56Z</time>
      </trkpt>
      <trkpt lat="46.24703" lon="6.26489">
        <ele>503.63</ele>
        <time>2021-12-18T12:44:16Z</time>
      </trkpt>
      <trkpt lat="46.24681" lon="6.26532">
        <ele>503.84</ele>
        <time>2021-12-18T12:44:31Z</time>
      </trkpt>
      <trkpt lat="46.24666" lon="6.26561">
        <ele>460</ele>
      </trkpt>
      <trkpt lat="46.24695" lon="6.26602">
        <ele>503.88</ele>
        <time>2021-12-18T12:46:15Z</time>
      </trkpt>
      <trkpt lat="46.24732" lon="6.26667">
        <ele>503.88</ele>
        <time>2021-12-18T12:46:34Z</time>
      </trkpt>
      <trkpt lat="46.24757" lon="6.26718">
        <ele>503.88</ele>
        <time>2021-12-18T12:46:47Z</time>
      </trkpt>
      <trkpt lat="46.24782" lon="6.26799">
        <ele>503.88</ele>
        <time>2021-12-18T12:47:06Z</time>
      </trkpt>
      <trkpt lat="46.24804" lon="6.26886">
        <ele>503.88</ele>
        <time>2021-12-18T12:47:25Z</time>
      </trkpt>
      <trkpt lat="46.24818" lon="6.26941">
        <ele>503.88</ele>
        <time>2021-12-18T12:47:38Z</time>
      </trkpt>
      <trkpt lat="46.24845" lon="6.27016">
        <ele>503.88</ele>
        <time>2021-12-18T12:47:57Z</time>
      </trkpt>
      <trkpt lat="46.24879" lon="6.27093">
        <ele>503.88</ele>
        <time>2021-12-18T12:48:20Z</time>
      </trkpt>
      <trkpt lat="46.2491" lon="6.27172">
        <ele>503.88</ele>
        <time>2021-12-18T12:48:41Z</time>
      </trkpt>
      <trkpt lat="46.24922" lon="6.27229">
        <ele>503.88</ele>
        <time>2021-12-18T12:48:56Z</time>
      </trkpt>
      <trkpt lat="46.24947" lon="6.27308">
        <ele>503.88</ele>
        <time>2021-12-18T12:49:16Z</time>
      </trkpt>
      <trkpt lat="46.24986" lon="6.27379">
        <ele>503.88</ele>
        <time>2021-12-18T12:49:38Z</time>
      </trkpt>
      <trkpt lat="46.25004" lon="6.27432">
        <ele>503.88</ele>
        <time>2021-12-18T12:49:52Z</time>
      </trkpt>
      <trkpt lat="46.25026" lon="6.27488">
        <ele>465</ele>
        <time>2021-12-18T12:50:17Z</time>
      </trkpt>
      <trkpt lat="46.24975" lon="6.27561">
        <ele>503.88</ele>
        <time>2021-12-18T12:50:40Z</time>
      </trkpt>
      <trkpt lat="46.24947" lon="6.27599">
        <ele>508.44</ele>
        <time>2021-12-18T12:50:56Z</time>
      </trkpt>
      <trkpt lat="46.24907" lon="6.27653">
        <ele>510.06</ele>
        <time>2021-12-18T12:51:21Z</time>
      </trkpt>
      <trkpt lat="46.24866" lon="6.27709">
        <ele>511.06</ele>
        <time>2021-12-18T12:51:46Z</time>
      </trkpt>
      <trkpt lat="46.2482" lon="6.27773">
        <ele>470.4</ele>
        <time>2021-12-18T12:52:12Z</time>
      </trkpt>
      <trkpt lat="46.24838" lon="6.27809">
        <ele>513.43</ele>
        <time>2021-12-18T12:53:01Z</time>
      </trkpt>
      <trkpt lat="46.24874" lon="6.27881">
        <ele>513.45</ele>
        <time>2021-12-18T12:53:22Z</time>
      </trkpt>
      <trkpt lat="46.24919" lon="6.27942">
        <ele>513.83</ele>
        <time>2021-12-18T12:54:22Z</time>
      </trkpt>
      <trkpt lat="46.24936" lon="6.27998">
        <ele>513.83</ele>
        <time>2021-12-18T12:54:41Z</time>
      </trkpt>
      <trkpt lat="46.24974" lon="6.28075">
        <ele>513.83</ele>
        <time>2021-12-18T12:55:05Z</time>
      </trkpt>
      <trkpt lat="46.25014" lon="6.28153">
        <ele>513.83</ele>
        <time>2021-12-18T12:55:30Z</time>
      </trkpt>
      <trkpt lat="46.25054" lon="6.28236">
        <ele>513.83</ele>
        <time>2021-12-18T12:55:54Z</time>
      </trkpt>
      <trkpt lat="46.25083" lon="6.28291">
        <ele>513.83</ele>
        <time>2021-12-18T12:56:14Z</time>
      </trkpt>
      <trkpt lat="46.25103" lon="6.28332">
        <ele>472.3</ele>
      </trkpt>
      <trkpt lat="46.25084" lon="6.28372">
        <ele>513.83</ele>
        <time>2021-12-18T12:56:40Z</time>
      </trkpt>
      <trkpt lat="46.25031" lon="6.28434">
        <ele>513.83</ele>
        <time>2021-12-18T12:57:07Z</time>
      </trkpt>
      <trkpt lat="46.24991" lon="6.28476">
        <ele>513.83</ele>
        <time>2021-12-18T12:57:27Z</time>
      </trkpt>
      <trkpt lat="46.24939" lon="6.28549">
        <ele>517.83</ele>
        <time>2021-12-18T12:57:58Z</time>
      </trkpt>
      <trkpt lat="46.24883" lon="6.28588">
        <ele>519.52</ele>
        <time>2021-12-18T12:58:48Z</time>
      </trkpt>
      <trkpt lat="46.24862" lon="6.28635">
        <ele>520.19</ele>
        <time>2021-12-18T13:01:22Z</time>
      </trkpt>
      <trkpt lat="46.24816" lon="6.28694">
        <ele>520.19</ele>
        <time>2021-12-18T13:01:44Z</time>
      </trkpt>
      <trkpt lat="46.24759" lon="6.28749">
        <ele>520.19</ele>
        <time>2021-12-18T13:02:09Z</time>
      </trkpt>
      <trkpt lat="46.24707" lon="6.28823">
        <ele>520.19</ele>
        <time>2021-12-18T13:02:37Z</time>
      </trkpt>
      <trkpt lat="46.24687" lon="6.28881">
        <ele>520.19</ele>
        <time>2021-12-18T13:02:52Z</time>
      </trkpt>
      <trkpt lat="46.24649" lon="6.28961">
        <ele>523.88</ele>
        <time>2021-12-18T13:03:17Z</time>
      </trkpt>
      <trkpt lat="46.24613" lon="6.29047">
        <ele>525.02</ele>
        <time>2021-12-18T13:03:45Z</time>
      </trkpt>
      <trkpt lat="46.24572" lon="6.29099">
        <ele>526.87</ele>
        <time>2021-12-18T13:04:07Z</time>
      </trkpt>
      <trkpt lat="46.24514" lon="6.29167">
        <ele>529.16</ele>
        <time>2021-12-18T13:04:40Z</time>
      </trkpt>
      <trkpt lat="46.2446" lon="6.29229">
        <ele>530.77</ele>
        <time>2021-12-18T13:05:10Z</time>
      </trkpt>
      <trkpt lat="46.24429" lon="6.29281">
        <ele>531.57</ele>
        <time>2021-12-18T13:05:26Z</time>
      </trkpt>
      <trkpt lat="46.24393" lon="6.29358">
        <ele>531.06</ele>
        <time>2021-12-18T13:05:51Z</time>
      </trkpt>
      <trkpt lat="46.24366" lon="6.29445">
        <ele>532.17</ele>
        <time>2021-12-18T13:06:18Z</time>
      </trkpt>
      <trkpt lat="46.24338" lon="6.29533">
        <ele>488.1</ele>
        <time>2021-12-18T13:06:47Z</time>
      </trkpt>
      <trkpt lat="46.24285" lon="6.29485">
        <ele>533.21</ele>
        <time>2021-12-18T13:07:01Z</time>
      </trkpt>
      <trkpt lat="46.24248" lon="6.29443">
        <ele>488.1</ele>
      </trkpt>
      <trkpt lat="46.24228" lon="6.29486">
        <ele>533.64</ele>
        <time>2021-12-18T13:12:23Z</time>
      </trkpt>
      <trkpt lat="46.24188" lon="6.29575">
        <ele>533.64</ele>
        <time>2021-12-18T13:12:53Z</time>
      </trkpt>
      <trkpt lat="46.24154" lon="6.29629">
        <ele>538.14</ele>
        <time>2021-12-18T13:14:48Z</time>
      </trkpt>
      <trkpt lat="46.24116" lon="6.29698">
        <ele>538.14</ele>
        <time>2021-12-18T13:15:15Z</time>
      </trkpt>
      <trkpt lat="46.24084" lon="6.29772">
        <ele>538.14</ele>
        <time>2021-12-18T13:15:39Z</time>
      </trkpt>
      <trkpt lat="46.24062" lon="6.29803">
        <ele>495.9</ele>
      </trkpt>
      <trkpt lat="46.24029" lon="6.29769">
        <ele>538.14</ele>
        <time>2021-12-18T13:16:07Z</time>
      </trkpt>
      <trkpt lat="46.23993" lon="6.29712">
        <ele>541.91</ele>
        <time>2021-12-18T13:16:21Z</time>
      </trkpt>
      <trkpt lat="46.23948" lon="6.29617">
        <ele>540.96</ele>
        <time>2021-12-18T13:16:44Z</time>
      </trkpt>
      <trkpt lat="46.23908" lon="6.29525">
        <ele>540.44</ele>
        <time>2021-12-18T13:17:01Z</time>
      </trkpt>
      <trkpt lat="46.23876" lon="6.29476">
        <ele>539.89</ele>
        <time>2021-12-18T13:17:11Z</time>
      </trkpt>
      <trkpt lat="46.23819" lon="6.29425">
        <ele>539.8</ele>
        <time>2021-12-18T13:17:28Z</time>
      </trkpt>
      <trkpt lat="46.2376" lon="6.29374">
        <ele>540.08</ele>
        <time>2021-12-18T13:17:48Z</time>
      </trkpt>
      <trkpt lat="46.2372" lon="6.29342">
        <ele>540.36</ele>
        <time>2021-12-18T13:18:01Z</time>
      </trkpt>
      <trkpt lat="46.23665" lon="6.29292">
        <ele>541.12</ele>
        <time>2021-12-18T13:18:20Z</time>
      </trkpt>
      <trkpt lat="46.23611" lon="6.29232">
        <ele>541.56</ele>
        <time>2021-12-18T13:18:39Z</time>
      </trkpt>
      <trkpt lat="46.23556" lon="6.2917">
        <ele>541.46</ele>
        <time>2021-12-18T13:18:59Z</time>
      </trkpt>
      <trkpt lat="46.23523" lon="6.29128">
        <ele>541.72</ele>
        <time>2021-12-18T13:19:12Z</time>
      </trkpt>
      <trkpt lat="46.23478" lon="6.29068">
        <ele>541.46</ele>
        <time>2021-12-18T13:19:28Z</time>
      </trkpt>
      <trkpt lat="46.23431" lon="6.29007">
        <ele>540.5</ele>
        <time>2021-12-18T13:19:46Z</time>
      </trkpt>
      <trkpt lat="46.23397" lon="6.28958">
        <ele>540.2</ele>
        <time>2021-12-18T13:19:57Z</time>
      </trkpt>
      <trkpt lat="46.23359" lon="6.28892">
        <ele>539.47</ele>
        <time>2021-12-18T13:20:10Z</time>
      </trkpt>
      <trkpt lat="46.23356" lon="6.28804">
        <ele>538.86</ele>
        <time>2021-12-18T13:20:31Z</time>
      </trkpt>
      <trkpt lat="46.23363" lon="6.28745">
        <ele>538.6</ele>
        <time>2021-12-18T13:20:45Z</time>
      </trkpt>
      <trkpt lat="46.2338" lon="6.2867">
        <ele>539.97</ele>
        <time>2021-12-18T13:21:10Z</time>
      </trkpt>
      <trkpt lat="46.23403" lon="6.28597">
        <ele>493</ele>
        <time>2021-12-18T13:21:50Z</time>
      </trkpt>
      <trkpt lat="46.23411" lon="6.28563">
        <ele>492.2</ele>
      </trkpt>
      <trkpt lat="46.23389" lon="6.28521">
        <ele>537.54</ele>
        <time>2021-12-18T13:22:04Z</time>
      </trkpt>
      <trkpt lat="46.23356" lon="6.28481">
        <ele>537.27</ele>
        <time>2021-12-18T13:22:12Z</time>
      </trkpt>
      <trkpt lat="46.23322" lon="6.28403">
        <ele>536.79</ele>
        <time>2021-12-18T13:22:24Z</time>
      </trkpt>
      <trkpt lat="46.23304" lon="6.28325">
        <ele>536.35</ele>
        <time>2021-12-18T13:22:36Z</time>
      </trkpt>
      <trkpt lat="46.23306" lon="6.28282">
        <ele>535.69</ele>
        <time>2021-12-18T13:22:48Z</time>
      </trkpt>
      <trkpt lat="46.23269" lon="6.28349">
        <ele>535.6</ele>
        <time>2021-12-18T13:23:11Z</time>
      </trkpt>
      <trkpt lat="46.23227" lon="6.28416">
        <ele>537.16</ele>
        <time>2021-12-18T13:23:36Z</time>
      </trkpt>
      <trkpt lat="46.23183" lon="6.28457">
        <ele>535.98</ele>
        <time>2021-12-18T13:24:01Z</time>
      </trkpt>
      <trkpt lat="46.23143" lon="6.28483">
        <ele>536.66</ele>
        <time>2021-12-18T13:24:53Z</time>
      </trkpt>
      <trkpt lat="46.23104" lon="6.28581">
        <ele>539.52</ele>
        <time>2021-12-18T13:26:01Z</time>
      </trkpt>
      <trkpt lat="46.23085" lon="6.28615">
        <ele>493.1</ele>
      </trkpt>
      <trkpt lat="46.2306" lon="6.28601">
        <ele>541.35</ele>
        <time>2021-12-18T13:29:15Z</time>
      </trkpt>
      <trkpt lat="46.23015" lon="6.28563">
        <ele>541.35</ele>
        <time>2021-12-18T13:29:37Z</time>
      </trkpt>
      <trkpt lat="46.22948" lon="6.28506">
        <ele>541.35</ele>
        <time>2021-12-18T13:30:50Z</time>
      </trkpt>
      <trkpt lat="46.22873" lon="6.28441">
        <ele>541.35</ele>
        <time>2021-12-18T13:31:39Z</time>
      </trkpt>
      <trkpt lat="46.22826" lon="6.28404">
        <ele>541.35</ele>
        <time>2021-12-18T13:32:09Z</time>
      </trkpt>
      <trkpt lat="46.22725" lon="6.2832">
        <ele>495.8</ele>
        <time>2021-12-18T13:33:39Z</time>
      </trkpt>
      <trkpt lat="46.22747" lon="6.28228">
        <ele>541.35</ele>
        <time>2021-12-18T13:34:23Z</time>
      </trkpt>
      <trkpt lat="46.2277" lon="6.28141">
        <ele>541.35</ele>
        <time>2021-12-18T13:34:39Z</time>
      </trkpt>
      <trkpt lat="46.22792" lon="6.28088">
        <ele>541.35</ele>
        <time>2021-12-18T13:34:47Z</time>
      </trkpt>
      <trkpt lat="46.22817" lon="6.28037">
        <ele>489.9</ele>
      </trkpt>
      <trkpt lat="46.22787" lon="6.2802">
        <ele>541.35</ele>
        <time>2021-12-18T13:35:06Z</time>
      </trkpt>
      <trkpt lat="46.22723" lon="6.27978">
        <ele>539.1</ele>
        <time>2021-12-18T13:35:28Z</time>
      </trkpt>
      <trkpt lat="46.22675" lon="6.27947">
        <ele>537.96</ele>
        <time>2021-12-18T13:35:47Z</time>
      </trkpt>
      <trkpt lat="46.22605" lon="6.27913">
        <ele>538.44</ele>
        <time>2021-12-18T13:36:12Z</time>
      </trkpt>
      <trkpt lat="46.22573" lon="6.27986">
        <ele>539.55</ele>
        <time>2021-12-18T13:36:38Z</time>
      </trkpt>
      <trkpt lat="46.22558" lon="6.2805">
        <ele>540.8</ele>
        <time>2021-12-18T13:36:56Z</time>
      </trkpt>
      <trkpt lat="46.22533" lon="6.28159">
        <ele>543.53</ele>
        <time>2021-12-18T13:37:28Z</time>
      </trkpt>
      <trkpt lat="46.22517" lon="6.28225">
        <ele>497.5</ele>
      </trkpt>
      <trkpt lat="46.22489" lon="6.28208">
        <ele>545.95</ele>
        <time>2021-12-18T13:38:02Z</time>
      </trkpt>
      <trkpt lat="46.22428" lon="6.28158">
        <ele>545.82</ele>
        <time>2021-12-18T13:38:48Z</time>
      </trkpt>
      <trkpt lat="46.22389" lon="6.28128">
        <ele>546.06</ele>
        <time>2021-12-18T13:39:04Z</time>
      </trkpt>
      <trkpt lat="46.22327" lon="6.28075">
        <ele>546.21</ele>
        <time>2021-12-18T13:39:30Z</time>
      </trkpt>
      <trkpt lat="46.22268" lon="6.28022">
        <ele>546.19</ele>
        <time>2021-12-18T13:39:52Z</time>
      </trkpt>
      <trkpt lat="46.22227" lon="6.2798">
        <ele>546.19</ele>
        <time>2021-12-18T13:40:09Z</time>
      </trkpt>
      <trkpt lat="46.22167" lon="6.27914">
        <ele>546.19</ele>
        <time>2021-12-18T13:40:34Z</time>
      </trkpt>
      <trkpt lat="46.22113" lon="6.2786">
        <ele>546.19</ele>
        <time>2021-12-18T13:40:52Z</time>
      </trkpt>
      <trkpt lat="46.22057" lon="6.27793">
        <ele>546.19</ele>
        <time>2021-12-18T13:41:17Z</time>
      </trkpt>
      <trkpt lat="46.22025" lon="6.27751">
        <ele>546.19</ele>
        <time>2021-12-18T13:41:32Z</time>
      </trkpt>
      <trkpt lat="46.21992" lon="6.27693">
        <ele>546.19</ele>
        <time>2021-12-18T13:42:35Z</time>
      </trkpt>
      <trkpt lat="46.21955" lon="6.27623">
        <ele>546.19</ele>
        <time>2021-12-18T13:42:50Z</time>
      </trkpt>
      <trkpt lat="46.21936" lon="6.27572">
        <ele>546.19</ele>
        <time>2021-12-18T13:43:01Z</time>
      </trkpt>
      <trkpt lat="46.219" lon="6.27499">
        <ele>546.19</ele>
        <time>2021-12-18T13:43:15Z</time>
      </trkpt>
      <trkpt lat="46.21868" lon="6.27423">
        <ele>546.19</ele>
        <time>2021-12-18T13:43:29Z</time>
      </trkpt>
      <trkpt lat="46.2185" lon="6.27367">
        <ele>539.98</ele>
        <time>2021-12-18T13:43:37Z</time>
      </trkpt>
      <trkpt lat="46.21822" lon="6.27293">
        <ele>539.9</ele>
        <time>2021-12-18T13:43:49Z</time>
      </trkpt>
      <trkpt lat="46.21795" lon="6.27207">
        <ele>538.46</ele>
        <time>2021-12-18T13:44:02Z</time>
      </trkpt>
      <trkpt lat="46.21763" lon="6.2713">
        <ele>536.8</ele>
        <time>2021-12-18T13:44:12Z</time>
      </trkpt>
      <trkpt lat="46.21743" lon="6.27084">
        <ele>535.52</ele>
        <time>2021-12-18T13:44:18Z</time>
      </trkpt>
      <trkpt lat="46.21707" lon="6.27003">
        <ele>533.67</ele>
        <time>2021-12-18T13:44:30Z</time>
      </trkpt>
      <trkpt lat="46.21674" lon="6.2692">
        <ele>532.03</ele>
        <time>2021-12-18T13:44:42Z</time>
      </trkpt>
      <trkpt lat="46.21652" lon="6.2687">
        <ele>530.83</ele>
        <time>2021-12-18T13:44:49Z</time>
      </trkpt>
      <trkpt lat="46.21619" lon="6.26792">
        <ele>529.18</ele>
        <time>2021-12-18T13:45:01Z</time>
      </trkpt>
      <trkpt lat="46.21609" lon="6.26764">
        <ele>480</ele>
      </trkpt>
      <trkpt lat="46.21627" lon="6.26715">
        <ele>527.71</ele>
        <time>2021-12-18T13:45:15Z</time>
      </trkpt>
      <trkpt lat="46.21594" lon="6.26681">
        <ele>526.84</ele>
        <time>2021-12-18T13:45:31Z</time>
      </trkpt>
      <trkpt lat="46.21554" lon="6.26639">
        <ele>476</ele>
      </trkpt>
      <trkpt lat="46.21549" lon="6.2661">
        <ele>525</ele>
        <time>2021-12-18T13:45:48Z</time>
      </trkpt>
      <trkpt lat="46.2153" lon="6.26521">
        <ele>524.78</ele>
        <time>2021-12-18T13:46:02Z</time>
      </trkpt>
      <trkpt lat="46.21497" lon="6.26445">
        <ele>527.28</ele>
        <time>2021-12-18T13:46:21Z</time>
      </trkpt>
      <trkpt lat="46.21465" lon="6.26403">
        <ele>528.39</ele>
        <time>2021-12-18T13:46:35Z</time>
      </trkpt>
      <trkpt lat="46.21412" lon="6.26376">
        <ele>528.15</ele>
        <time>2021-12-18T13:46:52Z</time>
      </trkpt>
      <trkpt lat="46.21358" lon="6.26348">
        <ele>529.33</ele>
        <time>2021-12-18T13:47:12Z</time>
      </trkpt>
      <trkpt lat="46.21321" lon="6.26335">
        <ele>529.68</ele>
        <time>2021-12-18T13:47:26Z</time>
      </trkpt>
      <trkpt lat="46.21267" lon="6.26325">
        <ele>530.01</ele>
        <time>2021-12-18T13:49:33Z</time>
      </trkpt>
      <trkpt lat="46.21209" lon="6.26233">
        <ele>483.1</ele>
        <time>2021-12-18T13:50:13Z</time>
      </trkpt>
      <trkpt lat="46.21191" lon="6.26256">
        <ele>529.89</ele>
        <time>2021-12-18T13:50:36Z</time>
      </trkpt>
      <trkpt lat="46.21151" lon="6.26325">
        <ele>529.89</ele>
        <time>2021-12-18T13:50:52Z</time>
      </trkpt>
      <trkpt lat="46.21107" lon="6.2638">
        <ele>529.89</ele>
        <time>2021-12-18T13:51:01Z</time>
      </trkpt>
      <trkpt lat="46.21084" lon="6.26412">
        <ele>473</ele>
      </trkpt>
      <trkpt lat="46.21068" lon="6.26379">
        <ele>529.89</ele>
        <time>2021-12-18T13:51:20Z</time>
      </trkpt>
      <trkpt lat="46.21056" lon="6.26369">
        <ele>472</ele>
      </trkpt>
      <trkpt lat="46.21034" lon="6.26383">
        <ele>529.89</ele>
        <time>2021-12-18T13:51:32Z</time>
      </trkpt>
      <trkpt lat="46.21015" lon="6.26393">
        <ele>469.7</ele>
      </trkpt>
      <trkpt lat="46.20984" lon="6.26352">
        <ele>511.92</ele>
        <time>2021-12-18T13:51:45Z</time>
      </trkpt>
      <trkpt lat="46.20965" lon="6.26265">
        <ele>506.9</ele>
        <time>2021-12-18T13:51:55Z</time>
      </trkpt>
      <trkpt lat="46.20953" lon="6.26207">
        <ele>502.45</ele>
        <time>2021-12-18T13:52:03Z</time>
      </trkpt>
      <trkpt lat="46.20948" lon="6.26124">
        <ele>498.37</ele>
        <time>2021-12-18T13:52:12Z</time>
      </trkpt>
      <trkpt lat="46.20947" lon="6.26034">
        <ele>496.88</ele>
        <time>2021-12-18T13:52:25Z</time>
      </trkpt>
      <trkpt lat="46.20936" lon="6.25949">
        <ele>496.44</ele>
        <time>2021-12-18T13:52:43Z</time>
      </trkpt>
      <trkpt lat="46.20922" lon="6.25895">
        <ele>495.99</ele>
        <time>2021-12-18T13:52:54Z</time>
      </trkpt>
      <trkpt lat="46.20907" lon="6.25815">
        <ele>495.34</ele>
        <time>2021-12-18T13:53:16Z</time>
      </trkpt>
      <trkpt lat="46.20897" lon="6.2571">
        <ele>495.43</ele>
        <time>2021-12-18T13:53:38Z</time>
      </trkpt>
      <trkpt lat="46.20898" lon="6.25641">
        <ele>495.42</ele>
        <time>2021-12-18T13:53:55Z</time>
      </trkpt>
      <trkpt lat="46.20889" lon="6.25614">
        <ele>448.1</ele>
      </trkpt>
      <trkpt lat="46.20851" lon="6.25593">
        <ele>493.78</ele>
        <time>2021-12-18T13:54:30Z</time>
      </trkpt>
      <trkpt lat="46.20815" lon="6.25569">
        <ele>493.01</ele>
        <time>2021-12-18T14:07:55Z</time>
      </trkpt>
      <trkpt lat="46.20782" lon="6.25539">
        <ele>493.01</ele>
        <time>2021-12-18T14:08:51Z</time>
      </trkpt>
      <trkpt lat="46.20765" lon="6.25524">
        <ele>446.5</ele>
      </trkpt>
      <trkpt lat="46.2075" lon="6.25542">
        <ele>445.4</ele>
        <time>2021-12-18T14:11:44Z</time>
      </trkpt>
      <trkpt lat="46.2069" lon="6.25463">
        <ele>493.01</ele>
        <time>2021-12-18T14:12:10Z</time>
      </trkpt>
      <trkpt lat="46.20643" lon="6.25404">
        <ele>493.01</ele>
        <time>2021-12-18T14:12:27Z</time>
      </trkpt>
      <trkpt lat="46.20613" lon="6.25368">
        <ele>493.01</ele>
        <time>2021-12-18T14:12:38Z</time>
      </trkpt>
      <trkpt lat="46.20564" lon="6.25313">
        <ele>493.01</ele>
        <time>2021-12-18T14:12:56Z</time>
      </trkpt>
      <trkpt lat="46.20516" lon="6.25255">
        <ele>493.01</ele>
        <time>2021-12-18T14:13:14Z</time>
      </trkpt>
      <trkpt lat="46.20487" lon="6.25211">
        <ele>493.01</ele>
        <time>2021-12-18T14:13:29Z</time>
      </trkpt>
      <trkpt lat="46.20454" lon="6.25135">
        <ele>493.01</ele>
        <time>2021-12-18T14:13:45Z</time>
      </trkpt>
      <trkpt lat="46.20428" lon="6.25056">
        <ele>493.01</ele>
        <time>2021-12-18T14:14:04Z</time>
      </trkpt>
      <trkpt lat="46.20418" lon="6.25003">
        <ele>489.6</ele>
        <time>2021-12-18T14:14:16Z</time>
      </trkpt>
      <trkpt lat="46.20405" lon="6.24962">
        <ele>442.4</ele>
        <time>2021-12-18T14:16:15Z</time>
      </trkpt>
    </trkseg>
  </trk>
</gpx>